Time;durP1;ratioP1;P1;durP2;ratioP2;P2;SDS_P1;SDS_P2;PMS_P1;PMS_P2;Temp;Humidity;BMP_temperature;BMP_pressure;BME280_temperature;BME280_humidity;BME280_pressure;Samples;Min_cycle;Max_cycle;Signal;HPM_P1;HPM_P2
2021/01/25 00:01:36;;;;;;;;;;;;;;;7.99;53.65;99370.44;4905273;29;19938;-74
2021/01/25 00:04:03;;;;;;;;;;;;;;;8.01;53.58;99373.88;4909973;29;20491;-75
2021/01/25 00:06:32;;;;;;;;;;;;;;;8.06;53.10;99373.69;4911348;29;19965;-74
2021/01/25 00:08:59;;;;;;;;;;;;;;;8.12;53.42;99381.34;4914021;29;20393;-75
2021/01/25 00:11:26;;;;;;;;;;;;;;;8.14;53.25;99380.38;4909787;29;19935;-75
2021/01/25 00:13:53;;;;;;;;;;;;;;;8.16;53.66;99382.09;4907202;29;19968;-74
2021/01/25 00:16:20;;;;;;;;;;;;;;;8.22;53.21;99369.53;4907309;29;19942;-74
2021/01/25 00:18:47;;;;;;;;;;;;;;;8.33;53.27;99378.81;4910337;29;20709;-74
2021/01/25 00:21:14;;;;;;;;;;;;;;;8.40;53.20;99378.47;4909550;29;20257;-74
2021/01/25 00:23:41;;;;;;;;;;;;;;;8.40;52.99;99386.38;4909168;29;19927;-74
2021/01/25 00:26:08;;;;;;;;;;;;;;;8.50;52.01;99379.00;4908716;29;20327;-74
2021/01/25 00:28:34;;;;;;;;;;;;;;;8.63;51.32;99379.34;4906383;29;19931;-74
2021/01/25 00:31:02;;;;;;;;;;;;;;;8.71;49.19;99386.97;4903716;29;19957;-74
2021/01/25 00:33:32;;;;;;;;;;;;;;;8.76;48.35;99377.94;4891298;29;19946;-74
2021/01/25 00:35:59;;;;;;;;;;;;;;;8.82;47.52;99383.88;4909860;29;19935;-74
2021/01/25 00:38:26;;;;;;;;;;;;;;;8.92;46.72;99378.13;4909377;29;20403;-74
2021/01/25 00:40:53;;;;;;;;;;;;;;;8.98;45.73;99374.38;4908444;29;20389;-74
2021/01/25 00:43:20;;;;;;;;;;;;;;;9.02;45.36;99375.97;4906178;29;19957;-74
2021/01/25 00:45:46;;;;;;;;;;;;;;;9.04;44.85;99378.53;4901737;29;20419;-74
2021/01/25 00:48:14;;;;;;;;;;;;;;;9.03;44.73;99377.66;4911170;29;19934;-75
2021/01/25 00:50:41;;;;;;;;;;;;;;;9.07;44.29;99386.31;4909116;29;19935;-75
2021/01/25 00:53:09;;;;;;;;;;;;;;;9.07;43.92;99373.97;4906666;29;19935;-74
2021/01/25 00:55:36;;;;;;;;;;;;;;;8.88;44.50;99371.28;4891485;29;19927;-75
2021/01/25 00:58:05;;;;;;;;;;;;;;;8.76;45.54;99374.41;4902314;29;19946;-75
2021/01/25 01:00:31;;;;;;;;;;;;;;;8.64;45.74;99374.03;4908958;29;19939;-74
2021/01/25 01:02:58;;;;;;;;;;;;;;;8.57;46.75;99372.53;4895868;29;19990;-75
2021/01/25 01:05:26;;;;;;;;;;;;;;;8.54;47.15;99379.75;4910747;29;19943;-74
2021/01/25 01:07:53;;;;;;;;;;;;;;;8.50;47.52;99370.22;4907382;29;19931;-75
2021/01/25 01:10:20;;;;;;;;;;;;;;;8.45;47.62;99375.66;4904384;29;20596;-74
2021/01/25 01:12:47;;;;;;;;;;;;;;;8.42;47.97;99374.00;4902936;29;20484;-74
2021/01/25 01:15:14;;;;;;;;;;;;;;;8.41;48.27;99380.19;4908801;29;19991;-75
2021/01/25 01:17:41;;;;;;;;;;;;;;;8.36;48.72;99373.41;4910556;29;19935;-75
2021/01/25 01:20:09;;;;;;;;;;;;;;;8.34;49.15;99377.84;4910191;29;20352;-75
2021/01/25 01:22:37;;;;;;;;;;;;;;;8.32;49.06;99375.28;4912835;29;19926;-74
2021/01/25 01:25:05;;;;;;;;;;;;;;;8.29;49.30;99375.41;4909036;29;19987;-75
2021/01/25 01:27:32;;;;;;;;;;;;;;;8.27;49.46;99374.59;4908081;29;20029;-74
2021/01/25 01:29:58;;;;;;;;;;;;;;;8.25;49.74;99376.47;4907627;29;21657;-74
2021/01/25 01:32:25;;;;;;;;;;;;;;;8.23;49.93;99373.88;4909005;29;19965;-74
2021/01/25 01:34:52;;;;;;;;;;;;;;;8.21;49.87;99380.13;4909150;29;19935;-74
2021/01/25 01:37:19;;;;;;;;;;;;;;;8.20;49.93;99379.28;4892105;29;20007;-74
2021/01/25 01:39:47;;;;;;;;;;;;;;;8.18;50.32;99373.22;4903498;29;20626;-74
2021/01/25 01:42:14;;;;;;;;;;;;;;;8.16;50.35;99376.84;4903338;29;19938;-74
2021/01/25 01:44:41;;;;;;;;;;;;;;;8.13;50.90;99381.28;4907265;29;19969;-74
2021/01/25 01:47:09;;;;;;;;;;;;;;;8.10;50.27;99365.63;4904893;29;20044;-75
2021/01/25 01:49:36;;;;;;;;;;;;;;;8.10;50.76;99378.78;4889997;29;19954;-74
2021/01/25 01:52:03;;;;;;;;;;;;;;;8.08;50.82;99383.25;4902101;29;19942;-75
2021/01/25 01:54:31;;;;;;;;;;;;;;;8.06;50.68;99374.53;4899241;29;20441;-74
2021/01/25 01:56:58;;;;;;;;;;;;;;;8.06;51.07;99377.16;4907582;29;20451;-74
2021/01/25 01:59:25;;;;;;;;;;;;;;;8.04;51.11;99383.44;4909220;29;20021;-74
2021/01/25 02:01:52;;;;;;;;;;;;;;;8.03;50.88;99381.72;4907275;29;19981;-74
2021/01/25 02:04:19;;;;;;;;;;;;;;;8.02;51.78;99382.63;4913480;29;19927;-74
2021/01/25 02:06:48;;;;;;;;;;;;;;;7.99;51.36;99370.44;4907843;29;20014;-74
2021/01/25 02:09:15;;;;;;;;;;;;;;;7.98;51.19;99376.59;4908944;29;19938;-74
2021/01/25 02:11:44;;;;;;;;;;;;;;;7.97;51.80;99377.53;4894787;29;20016;-74
2021/01/25 02:14:12;;;;;;;;;;;;;;;7.96;51.41;99373.19;4911949;29;19971;-74
2021/01/25 02:16:40;;;;;;;;;;;;;;;7.93;51.98;99368.91;4911000;29;19931;-74
2021/01/25 02:19:08;;;;;;;;;;;;;;;7.93;51.47;99389.09;4910273;29;19935;-74
2021/01/25 02:21:36;;;;;;;;;;;;;;;7.92;52.22;99377.72;4908077;29;19930;-75
2021/01/25 02:24:14;;;;;;;;;;;;;;;7.92;52.17;99377.72;4907360;29;22808;-75
2021/01/25 02:26:50;;;;;;;;;;;;;;;7.92;52.33;99385.63;4910430;29;19927;-74
2021/01/25 02:29:19;;;;;;;;;;;;;;;7.94;51.79;99386.41;4912044;29;19930;-74
2021/01/25 02:31:46;;;;;;;;;;;;;;;7.95;52.42;99392.53;4910939;29;19994;-75
2021/01/25 02:34:14;;;;;;;;;;;;;;;7.97;52.17;99388.94;4892459;29;19931;-74
2021/01/25 02:36:41;;;;;;;;;;;;;;;8.00;52.51;99387.97;4904889;29;19938;-75
2021/01/25 02:39:08;;;;;;;;;;;;;;;8.04;52.29;99388.69;4910977;29;20026;-75
2021/01/25 02:41:36;;;;;;;;;;;;;;;8.06;52.52;99392.97;4913272;29;19952;-75
2021/01/25 02:44:03;;;;;;;;;;;;;;;8.08;52.00;99396.41;4910865;29;21082;-75
2021/01/25 02:46:31;;;;;;;;;;;;;;;8.12;52.07;99386.63;4910233;29;20894;-75
2021/01/25 02:48:58;;;;;;;;;;;;;;;8.16;52.47;99396.13;4906757;29;20589;-75
2021/01/25 02:51:25;;;;;;;;;;;;;;;8.18;52.38;99394.28;4907448;29;19935;-75
2021/01/25 02:53:52;;;;;;;;;;;;;;;8.22;51.88;99389.75;4911253;29;19935;-75
2021/01/25 02:56:19;;;;;;;;;;;;;;;8.24;51.86;99390.56;4909021;29;19935;-75
2021/01/25 02:58:46;;;;;;;;;;;;;;;8.24;51.91;99395.81;4894058;29;19969;-74
2021/01/25 03:01:13;;;;;;;;;;;;;;;8.23;52.35;99394.09;4910019;29;20395;-74
2021/01/25 03:03:41;;;;;;;;;;;;;;;8.24;52.42;99393.19;4906810;29;19930;-74
2021/01/25 03:06:10;;;;;;;;;;;;;;;8.23;52.37;99404.63;4903634;29;19943;-74
2021/01/25 03:08:37;;;;;;;;;;;;;;;8.23;52.52;99397.56;4906063;29;19927;-74
2021/01/25 03:11:04;;;;;;;;;;;;;;;8.25;51.79;99398.38;4905893;29;19942;-74
2021/01/25 03:13:31;;;;;;;;;;;;;;;8.25;51.92;99402.81;4914238;29;20503;-74
2021/01/25 03:15:59;;;;;;;;;;;;;;;8.25;52.67;99401.03;4912861;29;20665;-74
2021/01/25 03:18:27;;;;;;;;;;;;;;;8.24;52.28;99395.81;4890013;29;19970;-74
2021/01/25 03:20:55;;;;;;;;;;;;;;;8.21;52.38;99393.28;4907618;29;19942;-74
2021/01/25 03:23:22;;;;;;;;;;;;;;;8.20;52.36;99399.50;4910743;29;20359;-74
2021/01/25 03:25:49;;;;;;;;;;;;;;;8.18;52.76;99391.66;4910247;29;19950;-74
2021/01/25 03:28:16;;;;;;;;;;;;;;;8.18;52.58;99394.28;4911142;29;20065;-74
2021/01/25 03:30:43;;;;;;;;;;;;;;;8.16;52.65;99385.56;4908424;29;19927;-74
2021/01/25 03:33:10;;;;;;;;;;;;;;;8.15;52.58;99389.13;4903199;29;20034;-75
2021/01/25 03:35:37;;;;;;;;;;;;;;;8.14;52.32;99390.03;4910498;29;20400;-74
2021/01/25 03:38:05;;;;;;;;;;;;;;;8.12;52.80;99389.25;4909056;29;20084;-74
2021/01/25 03:40:33;;;;;;;;;;;;;;;8.11;52.61;99388.38;4909917;29;19950;-74
2021/01/25 03:43:00;;;;;;;;;;;;;;;8.09;52.87;99387.59;4909917;29;19930;-74
2021/01/25 03:45:28;;;;;;;;;;;;;;;8.08;52.86;99387.66;4906722;29;19927;-74
2021/01/25 03:47:55;;;;;;;;;;;;;;;8.06;53.39;99394.75;4904363;29;19945;-74
2021/01/25 03:50:21;;;;;;;;;;;;;;;8.05;53.00;99390.41;4910885;29;20388;-74
2021/01/25 03:52:48;;;;;;;;;;;;;;;8.03;53.17;99398.34;4911071;29;20329;-75
2021/01/25 03:55:16;;;;;;;;;;;;;;;8.02;53.04;99393.16;4911611;29;20034;-74
2021/01/25 03:57:43;;;;;;;;;;;;;;;8.02;53.19;99390.53;4909752;29;20412;-74
2021/01/25 04:00:10;;;;;;;;;;;;;;;7.98;53.09;99398.56;4909447;29;20495;-75
2021/01/25 04:02:37;;;;;;;;;;;;;;;7.96;52.95;99387.22;4906040;29;19935;-75
2021/01/25 04:05:05;;;;;;;;;;;;;;;7.96;53.48;99395.09;4893535;29;20130;-76
2021/01/25 04:07:32;;;;;;;;;;;;;;;7.96;53.07;99394.25;4891273;29;19930;-74
2021/01/25 04:09:59;;;;;;;;;;;;;;;7.95;53.69;99387.28;4908258;29;22610;-74
2021/01/25 04:12:27;;;;;;;;;;;;;;;7.93;53.46;99392.59;4907605;29;19947;-74
2021/01/25 04:14:54;;;;;;;;;;;;;;;7.93;53.00;99394.34;4908652;29;19982;-75
2021/01/25 04:17:24;;;;;;;;;;;;;;;7.91;53.66;99391.78;4906622;29;20127;-74
2021/01/25 04:19:51;;;;;;;;;;;;;;;7.90;53.54;99390.06;4912815;29;20036;-75
2021/01/25 04:22:18;;;;;;;;;;;;;;;7.90;53.70;99395.34;4908805;29;19990;-75
2021/01/25 04:24:44;;;;;;;;;;;;;;;7.91;53.54;99386.53;4910996;29;19935;-75
2021/01/25 04:27:13;;;;;;;;;;;;;;;7.90;53.50;99387.44;4907558;29;19935;-75
2021/01/25 04:29:41;;;;;;;;;;;;;;;7.92;53.24;99390.03;4905722;29;20324;-74
2021/01/25 04:32:08;;;;;;;;;;;;;;;7.94;53.99;99391.66;4907584;29;20040;-75
2021/01/25 04:34:35;;;;;;;;;;;;;;;7.96;53.21;99389.84;4909121;29;19941;-74
2021/01/25 04:37:02;;;;;;;;;;;;;;;8.00;53.68;99389.72;4909194;29;20037;-74
2021/01/25 04:39:29;;;;;;;;;;;;;;;8.05;53.46;99398.28;4910425;29;20404;-75
2021/01/25 04:41:55;;;;;;;;;;;;;;;8.24;52.40;99398.44;4886843;29;20008;-74
2021/01/25 04:44:23;;;;;;;;;;;;;;;8.46;50.77;99403.78;4888922;29;19941;-75
2021/01/25 04:46:51;;;;;;;;;;;;;;;8.56;49.47;99410.38;4906763;29;20475;-75
2021/01/25 04:49:18;;;;;;;;;;;;;;;8.69;48.21;99407.25;4908513;29;19938;-75
2021/01/25 04:51:45;;;;;;;;;;;;;;;8.79;47.29;99408.59;4911166;29;19935;-74
2021/01/25 04:54:13;;;;;;;;;;;;;;;8.84;46.34;99413.66;4906953;29;20299;-75
2021/01/25 04:56:41;;;;;;;;;;;;;;;8.92;45.41;99409.78;4887867;29;20384;-75
2021/01/25 04:59:08;;;;;;;;;;;;;;;8.91;45.66;99408.06;4904959;29;19970;-75
2021/01/25 05:01:34;;;;;;;;;;;;;;;8.99;44.94;99412.16;4906371;29;20083;-75
2021/01/25 05:04:03;;;;;;;;;;;;;;;8.87;45.15;99406.47;4911264;29;19947;-75
2021/01/25 05:06:29;;;;;;;;;;;;;;;8.75;45.48;99399.94;4907580;29;19943;-75
2021/01/25 05:08:56;;;;;;;;;;;;;;;8.66;46.24;99413.50;4909612;29;19934;-74
2021/01/25 05:11:23;;;;;;;;;;;;;;;8.62;47.30;99409.28;4904411;29;19934;-75
2021/01/25 05:13:50;;;;;;;;;;;;;;;8.58;47.64;99405.06;4902318;29;19942;-75
2021/01/25 05:16:18;;;;;;;;;;;;;;;8.53;47.73;99412.28;4907832;29;20025;-75
2021/01/25 05:18:45;;;;;;;;;;;;;;;8.52;48.01;99406.13;4911906;29;20037;-75
2021/01/25 05:21:16;;;;;;;;;;;;;;;8.50;48.69;99404.47;4909954;29;20018;-75
2021/01/25 05:23:43;;;;;;;;;;;;;;;8.46;48.59;99409.88;4907794;29;19935;-75
2021/01/25 05:26:10;;;;;;;;;;;;;;;8.46;49.40;99406.41;4882374;29;19942;-74
2021/01/25 05:28:41;;;;;;;;;;;;;;;8.44;48.97;99408.19;4906199;29;20021;-74
2021/01/25 05:31:21;;;;;;;;;;;;;;;8.43;49.78;99407.34;4904808;29;19965;-75
2021/01/25 05:33:47;;;;;;;;;;;;;;;8.40;49.46;99406.59;4908094;29;19983;-74
2021/01/25 05:36:20;;;;;;;;;;;;;;;8.37;49.82;99409.38;4908720;29;20349;-75
2021/01/25 05:38:47;;;;;;;;;;;;;;;8.34;49.66;99404.19;4905261;29;19934;-74
2021/01/25 05:41:15;;;;;;;;;;;;;;;8.31;50.38;99405.19;4904009;29;19926;-75
2021/01/25 05:43:42;;;;;;;;;;;;;;;8.29;50.72;99399.13;4911359;29;19937;-75
2021/01/25 05:46:09;;;;;;;;;;;;;;;8.28;50.85;99407.94;4906349;29;20869;-75
2021/01/25 05:48:36;;;;;;;;;;;;;;;8.27;51.12;99408.84;4892884;29;19953;-75
2021/01/25 05:51:14;;;;;;;;;;;;;;;8.26;50.63;99415.91;4917923;29;19954;-75
2021/01/25 05:53:43;;;;;;;;;;;;;;;8.27;51.02;99414.13;4905813;29;20019;-74
2021/01/25 05:56:10;;;;;;;;;;;;;;;8.25;51.04;99410.72;4900704;29;20009;-74
2021/01/25 05:58:37;;;;;;;;;;;;;;;8.25;51.40;99416.81;4909528;29;20446;-74
2021/01/25 06:01:05;;;;;;;;;;;;;;;8.25;51.11;99416.81;4908676;29;19977;-75
2021/01/25 06:03:37;;;;;;;;;;;;;;;8.25;51.66;99421.25;4911582;29;19990;-75
2021/01/25 06:06:15;;;;;;;;;;;;;;;8.24;51.47;99419.53;4891415;29;19939;-74
2021/01/25 06:08:51;;;;;;;;;;;;;;;8.23;51.68;99423.91;4916356;29;20348;-75
2021/01/25 06:11:20;;;;;;;;;;;;;;;8.23;51.72;99426.56;4917843;29;19994;-75
2021/01/25 06:13:52;;;;;;;;;;;;;;;8.23;51.85;99420.44;4921954;29;20455;-75
2021/01/25 06:16:21;;;;;;;;;;;;;;;8.21;51.63;99427.53;4908602;29;19931;-75
2021/01/25 06:18:48;;;;;;;;;;;;;;;8.19;52.31;99435.50;4913220;29;19962;-74
2021/01/25 06:21:16;;;;;;;;;;;;;;;8.20;52.30;99436.38;4908965;29;20235;-77
2021/01/25 06:23:44;;;;;;;;;;;;;;;8.19;51.88;99440.78;4905698;29;19939;-75
2021/01/25 06:26:12;;;;;;;;;;;;;;;8.19;52.06;99445.19;4911053;29;19927;-75
2021/01/25 06:28:44;;;;;;;;;;;;;;;8.20;52.12;99449.56;4915389;29;19935;-74
2021/01/25 06:31:10;;;;;;;;;;;;;;;8.19;52.41;99453.94;4906724;29;20010;-74
2021/01/25 06:33:38;;;;;;;;;;;;;;;8.22;51.84;99451.22;4905450;29;19930;-75
2021/01/25 06:36:08;;;;;;;;;;;;;;;8.23;52.48;99447.63;4903078;29;20534;-76
2021/01/25 06:38:36;;;;;;;;;;;;;;;8.28;52.64;99456.22;4886003;29;20053;-75
2021/01/25 06:41:09;;;;;;;;;;;;;;;8.29;52.23;99455.31;4905651;29;20038;-75
2021/01/25 06:43:39;;;;;;;;;;;;;;;8.35;52.28;99464.75;4907260;29;20380;-76
2021/01/25 06:46:06;;;;;;;;;;;;;;;8.35;52.47;99456.84;4896646;29;19935;-74
2021/01/25 06:48:34;;;;;;;;;;;;;;;8.42;52.56;99460.97;4906334;29;20316;-74
2021/01/25 06:51:01;;;;;;;;;;;;;;;8.42;52.37;99463.59;4902250;29;20505;-74
2021/01/25 06:53:30;;;;;;;;;;;;;;;8.46;52.41;99467.88;4906029;29;19966;-74
2021/01/25 06:55:57;;;;;;;;;;;;;;;8.52;52.51;99469.41;4907413;29;20348;-74
2021/01/25 06:58:30;;;;;;;;;;;;;;;8.51;51.99;99466.81;4911759;29;19927;-75
2021/01/25 07:01:04;;;;;;;;;;;;;;;8.52;52.69;99472.03;4898571;29;19941;-73
2021/01/25 07:03:43;;;;;;;;;;;;;;;8.52;52.40;99469.41;4909231;29;19931;-74
2021/01/25 07:06:13;;;;;;;;;;;;;;;8.53;52.29;99463.22;4904424;29;19995;-75
2021/01/25 07:08:40;;;;;;;;;;;;;;;8.55;52.63;99473.69;4908069;29;19933;-74
2021/01/25 07:11:07;;;;;;;;;;;;;;;8.55;52.09;99469.28;4912345;29;19978;-74
2021/01/25 07:13:34;;;;;;;;;;;;;;;8.55;52.63;99466.66;4913817;29;19934;-74
2021/01/25 07:16:03;;;;;;;;;;;;;;;8.55;52.55;99468.41;4923289;29;19934;-76
2021/01/25 07:18:30;;;;;;;;;;;;;;;8.54;52.55;99467.56;4920228;29;20655;-74
2021/01/25 07:21:00;;;;;;;;;;;;;;;8.56;52.39;99467.50;4922407;29;19927;-75
2021/01/25 07:23:28;;;;;;;;;;;;;;;8.55;52.41;99468.41;4909259;29;19942;-74
2021/01/25 07:25:55;;;;;;;;;;;;;;;8.53;52.69;99468.47;4908920;29;19957;-74
2021/01/25 07:28:22;;;;;;;;;;;;;;;8.53;52.87;99479.03;4914374;29;19931;-75
2021/01/25 07:30:49;;;;;;;;;;;;;;;8.51;53.10;99485.28;4914827;29;20022;-75
2021/01/25 07:33:17;;;;;;;;;;;;;;;8.51;53.16;99477.38;4910287;29;19934;-74
2021/01/25 07:35:45;;;;;;;;;;;;;;;8.52;52.76;99479.09;4907261;29;20830;-75
2021/01/25 07:38:12;;;;;;;;;;;;;;;8.47;53.13;99481.91;4913308;29;20038;-74
2021/01/25 07:40:39;;;;;;;;;;;;;;;8.48;52.69;99483.63;4911141;29;19938;-74
2021/01/25 07:43:06;;;;;;;;;;;;;;;8.50;52.74;99492.34;4910166;29;20010;-75
2021/01/25 07:45:33;;;;;;;;;;;;;;;8.50;52.52;99489.69;4915456;29;20094;-74
2021/01/25 07:48:00;;;;;;;;;;;;;;;8.48;53.14;99491.53;4904681;29;20004;-74
2021/01/25 07:50:28;;;;;;;;;;;;;;;8.47;52.88;99490.69;4907679;29;20055;-75
2021/01/25 07:52:58;;;;;;;;;;;;;;;8.48;53.20;99496.78;4910433;29;20899;-75
2021/01/25 07:55:25;;;;;;;;;;;;;;;8.47;52.94;99497.72;4910499;29;19950;-75
2021/01/25 07:57:51;;;;;;;;;;;;;;;8.46;52.92;99499.50;4910605;29;20054;-75
2021/01/25 08:00:20;;;;;;;;;;;;;;;8.47;52.64;99495.94;4912175;29;20356;-75
2021/01/25 08:02:51;;;;;;;;;;;;;;;8.47;53.09;99501.22;4905096;29;20021;-75
2021/01/25 08:05:19;;;;;;;;;;;;;;;8.50;53.18;99509.91;4908135;29;19953;-76
2021/01/25 08:07:48;;;;;;;;;;;;;;;8.52;52.37;99501.03;4910218;29;19945;-75
2021/01/25 08:10:16;;;;;;;;;;;;;;;8.57;53.02;99508.75;4905651;29;20034;-75
2021/01/25 08:12:44;;;;;;;;;;;;;;;8.55;52.43;99511.47;4894772;29;19934;-75
2021/01/25 08:15:14;;;;;;;;;;;;;;;8.53;52.90;99515.94;4915413;29;19931;-75
2021/01/25 08:17:42;;;;;;;;;;;;;;;8.55;52.78;99510.59;4904518;29;19931;-74
2021/01/25 08:20:10;;;;;;;;;;;;;;;8.53;52.86;99512.44;4908246;29;19935;-74
2021/01/25 08:22:40;;;;;;;;;;;;;;;8.53;52.55;99513.28;4910670;29;20013;-75
2021/01/25 08:25:07;;;;;;;;;;;;;;;8.56;52.88;99520.22;4911782;29;19934;-75
2021/01/25 08:27:36;;;;;;;;;;;;;;;8.59;52.19;99515.69;4910056;29;20415;-75
2021/01/25 08:30:05;;;;;;;;;;;;;;;8.60;52.32;99516.53;4911101;29;20028;-74
2021/01/25 08:32:41;;;;;;;;;;;;;;;8.62;52.68;99512.94;4906479;29;19935;-75
2021/01/25 08:35:08;;;;;;;;;;;;;;;8.66;52.77;99518.09;4909226;29;19951;-74
2021/01/25 08:37:36;;;;;;;;;;;;;;;8.69;52.85;99520.59;4911462;29;20404;-75
2021/01/25 08:40:13;;;;;;;;;;;;;;;8.70;52.43;99525.81;4891844;29;19974;-74
2021/01/25 08:42:41;;;;;;;;;;;;;;;8.75;52.34;99518.59;4910205;29;19934;-75
2021/01/25 08:45:09;;;;;;;;;;;;;;;8.79;52.29;99516.69;4910747;29;19931;-75
2021/01/25 08:47:36;;;;;;;;;;;;;;;8.80;52.34;99521.06;4904722;29;19930;-75
2021/01/25 08:50:15;;;;;;;;;;;;;;;8.80;52.42;99532.44;4909506;29;20059;-75
2021/01/25 08:52:43;;;;;;;;;;;;;;;8.79;52.54;99530.72;4910597;29;20281;-74
2021/01/25 08:55:12;;;;;;;;;;;;;;;8.79;52.59;99538.63;4911115;29;19966;-75
2021/01/25 08:57:40;;;;;;;;;;;;;;;8.82;52.67;99534.19;4912376;29;19927;-74
2021/01/25 09:00:14;;;;;;;;;;;;;;;8.84;52.35;99537.59;4910981;29;20123;-74
2021/01/25 09:02:41;;;;;;;;;;;;;;;8.90;51.94;99547.91;4905884;29;19931;-74
2021/01/25 09:05:10;;;;;;;;;;;;;;;8.95;52.47;99543.31;4909882;29;19934;-74
2021/01/25 09:07:37;;;;;;;;;;;;;;;8.97;52.09;99539.69;4907400;29;19950;-75
2021/01/25 09:10:04;;;;;;;;;;;;;;;9.04;52.23;99544.72;4902164;29;19931;-75
2021/01/25 09:12:32;;;;;;;;;;;;;;;9.10;52.19;99547.09;4910493;29;20523;-76
2021/01/25 09:14:59;;;;;;;;;;;;;;;9.20;51.47;99555.53;4909283;29;19937;-76
2021/01/25 09:17:29;;;;;;;;;;;;;;;9.24;51.71;99554.47;4912165;29;20304;-76
2021/01/25 09:19:56;;;;;;;;;;;;;;;9.25;51.46;99554.41;4908264;29;19931;-76
2021/01/25 09:22:23;;;;;;;;;;;;;;;9.22;51.51;99558.94;4908983;29;20400;-76
2021/01/25 09:24:52;;;;;;;;;;;;;;;9.18;51.85;99554.72;4909848;29;19962;-75
2021/01/25 09:27:19;;;;;;;;;;;;;;;9.23;51.40;99561.53;4907914;29;20072;-75
2021/01/25 09:29:46;;;;;;;;;;;;;;;9.30;51.81;99567.44;4886650;29;19939;-76
2021/01/25 09:32:13;;;;;;;;;;;;;;;9.37;51.22;99565.38;4904087;29;20033;-75
2021/01/25 09:34:40;;;;;;;;;;;;;;;9.42;51.03;99566.91;4890497;29;20281;-77
2021/01/25 09:37:09;;;;;;;;;;;;;;;9.51;50.39;99580.63;4911106;29;20318;-75
2021/01/25 09:39:37;;;;;;;;;;;;;;;9.61;49.17;99581.97;4909344;29;19942;-76
2021/01/25 09:42:04;;;;;;;;;;;;;;;9.76;48.05;99588.41;4905657;29;20400;-76
2021/01/25 09:44:33;;;;;;;;;;;;;;;9.84;46.97;99596.84;4906545;29;19935;-76
2021/01/25 09:47:00;;;;;;;;;;;;;;;9.88;46.04;99587.03;4906052;29;19934;-76
2021/01/25 09:49:27;;;;;;;;;;;;;;;9.97;45.39;99598.03;4907885;29;20400;-75
2021/01/25 09:51:53;;;;;;;;;;;;;;;10.06;44.58;99603.84;4904391;29;19939;-75
2021/01/25 09:54:20;;;;;;;;;;;;;;;10.07;43.99;99593.22;4908788;29;19998;-76
2021/01/25 09:56:51;;;;;;;;;;;;;;;10.14;43.39;99602.59;4888170;29;20037;-77
2021/01/25 09:59:18;;;;;;;;;;;;;;;10.17;43.12;99596.31;4905616;29;19931;-76
2021/01/25 10:01:45;;;;;;;;;;;;;;;10.11;43.69;99596.56;4911047;29;19937;-76
2021/01/25 10:04:12;;;;;;;;;;;;;;;10.08;43.95;99602.84;4913649;29;20084;-75
2021/01/25 10:06:39;;;;;;;;;;;;;;;10.11;44.38;99599.22;4908632;29;20006;-76
2021/01/25 10:09:06;;;;;;;;;;;;;;;10.19;44.55;99610.34;4909635;29;19934;-76
2021/01/25 10:11:33;;;;;;;;;;;;;;;10.29;44.55;99608.13;4905780;29;19938;-75
2021/01/25 10:14:01;;;;;;;;;;;;;;;10.33;44.82;99609.69;4905204;29;19931;-76
2021/01/25 10:16:27;;;;;;;;;;;;;;;10.40;44.73;99612.97;4907989;29;19942;-76
2021/01/25 10:18:54;;;;;;;;;;;;;;;10.48;44.79;99617.91;4909954;29;19942;-76
2021/01/25 10:21:21;;;;;;;;;;;;;;;10.43;45.32;99620.78;4908288;29;20070;-76
2021/01/25 10:23:48;;;;;;;;;;;;;;;10.33;45.85;99628.22;4907580;29;19990;-76
2021/01/25 10:26:16;;;;;;;;;;;;;;;10.23;46.31;99627.78;4906409;29;21834;-76
2021/01/25 10:28:43;;;;;;;;;;;;;;;10.21;46.25;99626.97;4911851;29;20702;-76
2021/01/25 10:31:13;;;;;;;;;;;;;;;10.18;46.79;99631.53;4910554;29;19931;-76
2021/01/25 10:33:40;;;;;;;;;;;;;;;10.14;47.29;99629.03;4913724;29;19927;-76
2021/01/25 10:36:07;;;;;;;;;;;;;;;10.06;47.31;99635.56;4913717;29;19997;-76
2021/01/25 10:38:34;;;;;;;;;;;;;;;9.96;47.29;99638.59;4911590;29;19935;-76
2021/01/25 10:41:01;;;;;;;;;;;;;;;9.96;47.80;99629.81;4888767;29;20072;-76
2021/01/25 10:43:28;;;;;;;;;;;;;;;9.93;47.72;99640.53;4908956;29;19971;-75
2021/01/25 10:45:55;;;;;;;;;;;;;;;9.88;48.45;99642.50;4915109;29;20065;-75
2021/01/25 10:48:22;;;;;;;;;;;;;;;9.83;48.62;99637.41;4895129;29;19962;-76
2021/01/25 10:50:49;;;;;;;;;;;;;;;9.76;48.61;99635.94;4913721;29;19935;-76
2021/01/25 10:53:18;;;;;;;;;;;;;;;9.70;49.12;99644.97;4909340;29;20022;-75
2021/01/25 10:55:45;;;;;;;;;;;;;;;9.69;48.92;99645.03;4902735;29;19945;-76
2021/01/25 10:58:12;;;;;;;;;;;;;;;9.74;48.66;99637.78;4907920;29;19931;-77
2021/01/25 11:00:39;;;;;;;;;;;;;;;9.80;48.45;99643.66;4911943;29;20060;-77
2021/01/25 11:03:06;;;;;;;;;;;;;;;9.80;48.50;99648.09;4914747;29;19933;-77
2021/01/25 11:05:35;;;;;;;;;;;;;;;9.83;48.75;99644.47;4914882;29;19993;-76
2021/01/25 11:08:02;;;;;;;;;;;;;;;9.80;48.56;99653.38;4911862;29;19982;-76
2021/01/25 11:10:29;;;;;;;;;;;;;;;9.75;49.00;99643.00;4906183;29;20264;-77
2021/01/25 11:12:56;;;;;;;;;;;;;;;9.71;48.99;99645.84;4910008;29;20818;-77
2021/01/25 11:15:23;;;;;;;;;;;;;;;9.65;49.15;99657.50;4894801;29;21618;-78
2021/01/25 11:17:49;;;;;;;;;;;;;;;9.66;49.23;99653.09;4910550;29;19955;-76
2021/01/25 11:20:17;;;;;;;;;;;;;;;9.66;49.70;99648.66;4912829;29;19939;-77
2021/01/25 11:22:48;;;;;;;;;;;;;;;9.61;49.65;99654.16;4910846;29;19990;-76
2021/01/25 11:25:15;;;;;;;;;;;;;;;9.62;49.10;99655.84;4912883;29;19935;-78
2021/01/25 11:27:42;;;;;;;;;;;;;;;9.63;49.68;99659.34;4894658;29;19934;-75
2021/01/25 11:30:09;;;;;;;;;;;;;;;9.59;49.66;99655.97;4911146;29;19941;-76
2021/01/25 11:32:36;;;;;;;;;;;;;;;9.59;49.53;99666.53;4911642;29;20104;-74
2021/01/25 11:35:04;;;;;;;;;;;;;;;9.62;49.31;99665.56;4911727;29;19996;-75
2021/01/25 11:37:31;;;;;;;;;;;;;;;9.57;49.99;99663.13;4906674;29;19937;-76
2021/01/25 11:39:59;;;;;;;;;;;;;;;9.58;49.55;99667.44;4888111;29;19935;-76
2021/01/25 11:42:26;;;;;;;;;;;;;;;9.63;49.71;99668.13;4892652;29;19939;-83
2021/01/25 11:44:53;;;;;;;;;;;;;;;9.72;49.70;99666.06;4911698;29;19934;-77
2021/01/25 11:47:20;;;;;;;;;;;;;;;9.69;49.70;99659.13;4910297;29;20325;-76
2021/01/25 11:49:47;;;;;;;;;;;;;;;9.66;49.51;99664.50;4903290;29;19931;-75
2021/01/25 11:52:14;;;;;;;;;;;;;;;9.74;49.46;99666.84;4904959;29;19931;-74
2021/01/25 11:54:41;;;;;;;;;;;;;;;9.79;49.23;99676.28;4901345;29;19934;-74
2021/01/25 11:57:08;;;;;;;;;;;;;;;9.80;49.38;99670.06;4906304;29;19938;-75
2021/01/25 11:59:35;;;;;;;;;;;;;;;9.73;49.67;99675.66;4909210;29;19930;-75
2021/01/25 12:02:02;;;;;;;;;;;;;;;9.70;49.97;99681.94;4907811;29;19935;-74
2021/01/25 12:04:50;;;;;;;;;;;;;;;9.69;49.89;99684.66;4911457;29;19942;-75
2021/01/25 12:07:17;;;;;;;;;;;;;;;9.67;49.54;99679.44;4904717;29;19949;-75
2021/01/25 12:09:43;;;;;;;;;;;;;;;9.68;49.55;99685.56;4903498;29;19949;-74
2021/01/25 12:12:11;;;;;;;;;;;;;;;9.67;49.85;99687.34;4905182;29;19945;-75
2021/01/25 12:14:38;;;;;;;;;;;;;;;9.63;49.84;99683.97;4907341;29;19934;-75
2021/01/25 12:17:05;;;;;;;;;;;;;;;9.62;49.53;99678.75;4907152;29;20042;-74
2021/01/25 12:19:32;;;;;;;;;;;;;;;9.59;49.97;99681.53;4906575;29;20037;-75
2021/01/25 12:21:59;;;;;;;;;;;;;;;9.54;49.76;99689.63;4898735;29;20427;-75
2021/01/25 12:24:25;;;;;;;;;;;;;;;9.54;49.96;99683.50;4902342;29;20025;-75
2021/01/25 12:26:52;;;;;;;;;;;;;;;9.47;49.87;99689.00;4888693;29;19945;-75
2021/01/25 12:29:20;;;;;;;;;;;;;;;9.43;50.52;99689.22;4910775;29;19950;-74
2021/01/25 12:31:48;;;;;;;;;;;;;;;9.42;50.82;99692.75;4905711;29;20054;-74
2021/01/25 12:34:16;;;;;;;;;;;;;;;9.42;50.41;99690.97;4905557;29;19931;-75
2021/01/25 12:36:42;;;;;;;;;;;;;;;9.37;50.82;99687.66;4902759;29;19974;-74
2021/01/25 12:39:09;;;;;;;;;;;;;;;9.32;50.68;99691.41;4887945;29;20010;-75
2021/01/25 12:41:37;;;;;;;;;;;;;;;9.25;50.90;99685.50;4905550;29;19962;-75
2021/01/25 12:44:04;;;;;;;;;;;;;;;9.19;51.30;99681.31;4909192;29;20380;-75
2021/01/25 12:46:34;;;;;;;;;;;;;;;9.16;50.92;99688.50;4890279;29;19931;-75
2021/01/25 12:49:06;;;;;;;;;;;;;;;9.09;51.03;99694.00;4907227;29;19935;-75
2021/01/25 12:51:33;;;;;;;;;;;;;;;9.07;51.21;99694.97;4902454;29;20017;-75
2021/01/25 12:54:00;;;;;;;;;;;;;;;9.05;51.71;99689.75;4908103;29;19930;-74
2021/01/25 12:56:28;;;;;;;;;;;;;;;9.06;51.41;99704.69;4910802;29;20237;-74
2021/01/25 12:58:55;;;;;;;;;;;;;;;9.08;51.95;99694.91;4905136;29;20400;-75